sensor_id;sensor_type;location;lat;lon;timestamp;temperature;humidity
15926;DHT22;8062;53.882;10.642;2023-10-31T00:00:16;11.00;99.90
15926;DHT22;8062;53.882;10.642;2023-10-31T00:01:36;10.90;99.90
15926;DHT22;8062;53.882;10.642;2023-10-31T00:02:55;10.90;99.90
15926;DHT22;8062;53.882;10.642;2023-10-31T00:04:15;10.90;99.90
15926;DHT22;8062;53.882;10.642;2023-10-31T00:05:34;11.00;99.90
15926;DHT22;8062;53.882;10.642;2023-10-31T00:06:54;11.00;99.90
15926;DHT22;8062;53.882;10.642;2023-10-31T00:08:13;11.00;99.90
15926;DHT22;8062;53.882;10.642;2023-10-31T00:09:33;11.00;99.90
15926;DHT22;8062;53.882;10.642;2023-10-31T00:10:52;11.00;99.90
15926;DHT22;8062;53.882;10.642;2023-10-31T00:12:12;11.00;99.90
15926;DHT22;8062;53.882;10.642;2023-10-31T00:13:32;11.00;99.90
15926;DHT22;8062;53.882;10.642;2023-10-31T00:14:51;10.90;99.90
15926;DHT22;8062;53.882;10.642;2023-10-31T00:16:10;10.90;99.90
15926;DHT22;8062;53.882;10.642;2023-10-31T00:17:30;10.90;99.90
15926;DHT22;8062;53.882;10.642;2023-10-31T00:18:49;10.90;99.90
15926;DHT22;8062;53.882;10.642;2023-10-31T00:20:09;10.90;99.90
15926;DHT22;8062;53.882;10.642;2023-10-31T00:21:28;10.90;99.90
15926;DHT22;8062;53.882;10.642;2023-10-31T00:22:48;10.90;99.90
15926;DHT22;8062;53.882;10.642;2023-10-31T00:24:08;11.00;99.90
15926;DHT22;8062;53.882;10.642;2023-10-31T00:25:27;11.00;99.90
15926;DHT22;8062;53.882;10.642;2023-10-31T00:26:47;11.00;99.90
15926;DHT22;8062;53.882;10.642;2023-10-31T00:28:07;11.00;99.90
15926;DHT22;8062;53.882;10.642;2023-10-31T00:29:27;10.90;99.90
15926;DHT22;8062;53.882;10.642;2023-10-31T00:30:46;10.90;99.90
15926;DHT22;8062;53.882;10.642;2023-10-31T00:32:06;11.00;99.90
15926;DHT22;8062;53.882;10.642;2023-10-31T00:33:27;10.90;99.90
15926;DHT22;8062;53.882;10.642;2023-10-31T00:34:46;10.90;99.90
15926;DHT22;8062;53.882;10.642;2023-10-31T00:36:07;11.00;99.90
15926;DHT22;8062;53.882;10.642;2023-10-31T00:37:27;11.00;99.90
15926;DHT22;8062;53.882;10.642;2023-10-31T00:38:46;11.00;99.90
15926;DHT22;8062;53.882;10.642;2023-10-31T00:40:09;11.00;99.90
15926;DHT22;8062;53.882;10.642;2023-10-31T00:41:31;11.00;99.90
15926;DHT22;8062;53.882;10.642;2023-10-31T00:42:51;11.00;99.90
15926;DHT22;8062;53.882;10.642;2023-10-31T00:44:10;11.00;99.90
15926;DHT22;8062;53.882;10.642;2023-10-31T00:45:30;11.00;99.90
15926;DHT22;8062;53.882;10.642;2023-10-31T00:46:50;11.00;99.90
15926;DHT22;8062;53.882;10.642;2023-10-31T00:48:10;11.10;99.90
15926;DHT22;8062;53.882;10.642;2023-10-31T00:49:30;11.10;99.90
15926;DHT22;8062;53.882;10.642;2023-10-31T00:50:49;11.10;99.90
15926;DHT22;8062;53.882;10.642;2023-10-31T00:52:09;11.10;99.90
15926;DHT22;8062;53.882;10.642;2023-10-31T00:53:28;11.00;99.90
15926;DHT22;8062;53.882;10.642;2023-10-31T00:54:48;11.00;99.90
15926;DHT22;8062;53.882;10.642;2023-10-31T00:56:08;11.00;99.90
15926;DHT22;8062;53.882;10.642;2023-10-31T00:57:28;11.00;99.90
15926;DHT22;8062;53.882;10.642;2023-10-31T00:58:49;11.00;99.90
15926;DHT22;8062;53.882;10.642;2023-10-31T01:00:09;10.90;99.90
15926;DHT22;8062;53.882;10.642;2023-10-31T01:01:29;10.90;99.90
15926;DHT22;8062;53.882;10.642;2023-10-31T01:02:48;11.00;99.90
15926;DHT22;8062;53.882;10.642;2023-10-31T01:04:08;11.00;99.90
15926;DHT22;8062;53.882;10.642;2023-10-31T01:05:27;11.00;99.90
15926;DHT22;8062;53.882;10.642;2023-10-31T01:06:47;11.00;99.90
15926;DHT22;8062;53.882;10.642;2023-10-31T01:08:07;11.00;99.90
15926;DHT22;8062;53.882;10.642;2023-10-31T01:09:26;11.00;99.90
15926;DHT22;8062;53.882;10.642;2023-10-31T01:10:46;11.10;99.90
15926;DHT22;8062;53.882;10.642;2023-10-31T01:12:06;11.10;99.90
15926;DHT22;8062;53.882;10.642;2023-10-31T01:13:26;11.10;99.90
15926;DHT22;8062;53.882;10.642;2023-10-31T01:14:46;11.10;99.90
15926;DHT22;8062;53.882;10.642;2023-10-31T01:16:05;11.10;99.90
15926;DHT22;8062;53.882;10.642;2023-10-31T01:17:25;11.10;99.90
15926;DHT22;8062;53.882;10.642;2023-10-31T01:18:45;11.10;99.90
15926;DHT22;8062;53.882;10.642;2023-10-31T01:20:05;11.20;99.90
15926;DHT22;8062;53.882;10.642;2023-10-31T01:21:25;11.10;99.90
15926;DHT22;8062;53.882;10.642;2023-10-31T01:22:45;11.10;99.90
15926;DHT22;8062;53.882;10.642;2023-10-31T01:24:05;11.10;99.90
15926;DHT22;8062;53.882;10.642;2023-10-31T01:25:25;11.20;99.90
15926;DHT22;8062;53.882;10.642;2023-10-31T01:26:44;11.20;99.90
15926;DHT22;8062;53.882;10.642;2023-10-31T01:28:04;11.10;99.90
15926;DHT22;8062;53.882;10.642;2023-10-31T01:29:23;11.10;99.90
15926;DHT22;8062;53.882;10.642;2023-10-31T01:30:43;11.00;99.90
15926;DHT22;8062;53.882;10.642;2023-10-31T01:32:02;11.10;99.90
15926;DHT22;8062;53.882;10.642;2023-10-31T01:33:22;11.10;99.90
15926;DHT22;8062;53.882;10.642;2023-10-31T01:34:41;11.10;99.90
15926;DHT22;8062;53.882;10.642;2023-10-31T01:36:01;11.10;99.90
15926;DHT22;8062;53.882;10.642;2023-10-31T01:37:21;11.10;99.90
15926;DHT22;8062;53.882;10.642;2023-10-31T01:38:41;11.10;99.90
15926;DHT22;8062;53.882;10.642;2023-10-31T01:40:00;11.00;99.90
15926;DHT22;8062;53.882;10.642;2023-10-31T01:41:20;11.10;99.90
15926;DHT22;8062;53.882;10.642;2023-10-31T01:42:40;11.10;99.90
15926;DHT22;8062;53.882;10.642;2023-10-31T01:43:59;11.10;99.90
15926;DHT22;8062;53.882;10.642;2023-10-31T01:45:19;11.10;99.90
15926;DHT22;8062;53.882;10.642;2023-10-31T01:46:39;11.00;99.90
15926;DHT22;8062;53.882;10.642;2023-10-31T01:47:58;11.10;99.90
15926;DHT22;8062;53.882;10.642;2023-10-31T01:49:18;11.10;99.90
15926;DHT22;8062;53.882;10.642;2023-10-31T01:50:38;11.10;99.90
15926;DHT22;8062;53.882;10.642;2023-10-31T01:52:00;11.00;99.90
15926;DHT22;8062;53.882;10.642;2023-10-31T01:53:20;11.10;99.90
15926;DHT22;8062;53.882;10.642;2023-10-31T01:54:39;11.10;99.90
15926;DHT22;8062;53.882;10.642;2023-10-31T01:56:02;11.10;99.90
15926;DHT22;8062;53.882;10.642;2023-10-31T01:57:22;11.10;99.90
15926;DHT22;8062;53.882;10.642;2023-10-31T01:58:42;11.00;99.90
15926;DHT22;8062;53.882;10.642;2023-10-31T02:00:03;11.00;99.90
15926;DHT22;8062;53.882;10.642;2023-10-31T02:01:32;11.00;99.90
15926;DHT22;8062;53.882;10.642;2023-10-31T02:02:53;11.00;99.90
15926;DHT22;8062;53.882;10.642;2023-10-31T02:04:13;11.00;99.90
15926;DHT22;8062;53.882;10.642;2023-10-31T02:05:34;11.00;99.90
15926;DHT22;8062;53.882;10.642;2023-10-31T02:06:54;11.10;99.90
15926;DHT22;8062;53.882;10.642;2023-10-31T02:08:14;11.10;99.90
15926;DHT22;8062;53.882;10.642;2023-10-31T02:09:33;11.00;99.90
15926;DHT22;8062;53.882;10.642;2023-10-31T02:10:53;10.90;99.90
15926;DHT22;8062;53.882;10.642;2023-10-31T02:12:31;10.90;99.90
15926;DHT22;8062;53.882;10.642;2023-10-31T02:13:50;11.00;99.90
15926;DHT22;8062;53.882;10.642;2023-10-31T02:15:10;10.90;99.90
15926;DHT22;8062;53.882;10.642;2023-10-31T02:16:30;10.90;99.90
15926;DHT22;8062;53.882;10.642;2023-10-31T02:17:50;11.00;99.90
15926;DHT22;8062;53.882;10.642;2023-10-31T02:19:11;11.00;99.90
15926;DHT22;8062;53.882;10.642;2023-10-31T02:20:32;11.00;99.90
15926;DHT22;8062;53.882;10.642;2023-10-31T02:21:51;10.90;99.90
15926;DHT22;8062;53.882;10.642;2023-10-31T02:23:11;10.90;99.90
15926;DHT22;8062;53.882;10.642;2023-10-31T02:24:31;11.00;99.90
15926;DHT22;8062;53.882;10.642;2023-10-31T02:25:51;10.90;99.90
15926;DHT22;8062;53.882;10.642;2023-10-31T02:27:10;10.90;99.90
15926;DHT22;8062;53.882;10.642;2023-10-31T02:28:29;11.00;99.90
15926;DHT22;8062;53.882;10.642;2023-10-31T02:29:50;10.90;99.90
15926;DHT22;8062;53.882;10.642;2023-10-31T02:31:09;10.90;99.90
15926;DHT22;8062;53.882;10.642;2023-10-31T02:32:29;10.90;99.90
15926;DHT22;8062;53.882;10.642;2023-10-31T02:33:48;10.90;99.90
15926;DHT22;8062;53.882;10.642;2023-10-31T02:35:08;10.90;99.90
15926;DHT22;8062;53.882;10.642;2023-10-31T02:36:28;10.90;99.90
15926;DHT22;8062;53.882;10.642;2023-10-31T02:37:47;10.90;99.90
15926;DHT22;8062;53.882;10.642;2023-10-31T02:39:07;10.80;99.90
15926;DHT22;8062;53.882;10.642;2023-10-31T02:40:27;10.80;99.90
15926;DHT22;8062;53.882;10.642;2023-10-31T02:41:46;10.90;99.90
15926;DHT22;8062;53.882;10.642;2023-10-31T02:43:06;10.80;99.90
15926;DHT22;8062;53.882;10.642;2023-10-31T02:44:26;10.90;99.90
15926;DHT22;8062;53.882;10.642;2023-10-31T02:45:45;10.90;99.90
15926;DHT22;8062;53.882;10.642;2023-10-31T02:47:05;10.90;99.90
15926;DHT22;8062;53.882;10.642;2023-10-31T02:48:26;10.90;99.90
15926;DHT22;8062;53.882;10.642;2023-10-31T02:49:45;10.90;99.90
15926;DHT22;8062;53.882;10.642;2023-10-31T02:51:06;10.90;99.90
15926;DHT22;8062;53.882;10.642;2023-10-31T02:52:26;10.90;99.90
15926;DHT22;8062;53.882;10.642;2023-10-31T02:53:47;10.90;99.90
15926;DHT22;8062;53.882;10.642;2023-10-31T02:55:06;10.90;99.90
15926;DHT22;8062;53.882;10.642;2023-10-31T02:56:26;10.90;99.90
15926;DHT22;8062;53.882;10.642;2023-10-31T02:57:46;10.90;99.90
15926;DHT22;8062;53.882;10.642;2023-10-31T02:59:05;10.90;99.90
15926;DHT22;8062;53.882;10.642;2023-10-31T03:00:25;10.90;99.90
15926;DHT22;8062;53.882;10.642;2023-10-31T03:01:46;10.90;99.90
15926;DHT22;8062;53.882;10.642;2023-10-31T03:03:05;10.90;99.90
15926;DHT22;8062;53.882;10.642;2023-10-31T03:04:25;10.90;99.90
15926;DHT22;8062;53.882;10.642;2023-10-31T03:05:44;10.80;99.90
15926;DHT22;8062;53.882;10.642;2023-10-31T03:07:04;10.80;99.90
15926;DHT22;8062;53.882;10.642;2023-10-31T03:08:23;10.90;99.90
15926;DHT22;8062;53.882;10.642;2023-10-31T03:09:44;10.90;99.90
15926;DHT22;8062;53.882;10.642;2023-10-31T03:11:03;10.90;99.90
15926;DHT22;8062;53.882;10.642;2023-10-31T03:12:23;10.90;99.90
15926;DHT22;8062;53.882;10.642;2023-10-31T03:13:43;10.90;99.90
15926;DHT22;8062;53.882;10.642;2023-10-31T03:15:03;10.90;99.90
15926;DHT22;8062;53.882;10.642;2023-10-31T03:16:23;10.90;99.90
15926;DHT22;8062;53.882;10.642;2023-10-31T03:17:42;10.90;99.90
15926;DHT22;8062;53.882;10.642;2023-10-31T03:19:02;10.90;99.90
15926;DHT22;8062;53.882;10.642;2023-10-31T03:20:22;10.90;99.90
15926;DHT22;8062;53.882;10.642;2023-10-31T03:21:41;10.90;99.90
15926;DHT22;8062;53.882;10.642;2023-10-31T03:23:01;10.90;99.90
15926;DHT22;8062;53.882;10.642;2023-10-31T03:24:21;10.90;99.90
15926;DHT22;8062;53.882;10.642;2023-10-31T03:25:40;10.90;99.90
15926;DHT22;8062;53.882;10.642;2023-10-31T03:27:00;11.00;99.90
15926;DHT22;8062;53.882;10.642;2023-10-31T03:28:20;11.00;99.90
15926;DHT22;8062;53.882;10.642;2023-10-31T03:29:42;11.00;99.90
15926;DHT22;8062;53.882;10.642;2023-10-31T03:31:01;11.00;99.90
15926;DHT22;8062;53.882;10.642;2023-10-31T03:32:21;11.00;99.90
15926;DHT22;8062;53.882;10.642;2023-10-31T03:33:41;11.00;99.90
15926;DHT22;8062;53.882;10.642;2023-10-31T03:35:00;11.00;99.90
15926;DHT22;8062;53.882;10.642;2023-10-31T03:36:20;11.10;99.90
15926;DHT22;8062;53.882;10.642;2023-10-31T03:37:39;11.10;99.90
15926;DHT22;8062;53.882;10.642;2023-10-31T03:39:00;11.10;99.90
15926;DHT22;8062;53.882;10.642;2023-10-31T03:40:20;11.10;99.90
15926;DHT22;8062;53.882;10.642;2023-10-31T03:41:39;11.00;99.90
15926;DHT22;8062;53.882;10.642;2023-10-31T03:42:59;11.00;99.90
15926;DHT22;8062;53.882;10.642;2023-10-31T03:44:18;11.10;99.90
15926;DHT22;8062;53.882;10.642;2023-10-31T03:45:39;11.00;99.90
15926;DHT22;8062;53.882;10.642;2023-10-31T03:47:00;11.00;99.90
15926;DHT22;8062;53.882;10.642;2023-10-31T03:48:20;11.10;99.90
15926;DHT22;8062;53.882;10.642;2023-10-31T03:49:40;11.10;99.90
15926;DHT22;8062;53.882;10.642;2023-10-31T03:51:00;11.10;99.90
15926;DHT22;8062;53.882;10.642;2023-10-31T03:52:20;11.10;99.90
15926;DHT22;8062;53.882;10.642;2023-10-31T03:53:39;11.10;99.90
15926;DHT22;8062;53.882;10.642;2023-10-31T03:54:58;11.10;99.90
15926;DHT22;8062;53.882;10.642;2023-10-31T03:56:18;11.10;99.90
15926;DHT22;8062;53.882;10.642;2023-10-31T03:57:38;11.20;99.90
15926;DHT22;8062;53.882;10.642;2023-10-31T03:58:57;11.10;99.90
15926;DHT22;8062;53.882;10.642;2023-10-31T04:00:17;11.20;99.90
15926;DHT22;8062;53.882;10.642;2023-10-31T04:01:38;11.20;99.90
15926;DHT22;8062;53.882;10.642;2023-10-31T04:02:59;11.20;99.90
15926;DHT22;8062;53.882;10.642;2023-10-31T04:04:18;11.20;99.90
15926;DHT22;8062;53.882;10.642;2023-10-31T04:05:38;11.20;99.90
15926;DHT22;8062;53.882;10.642;2023-10-31T04:06:58;11.20;99.90
15926;DHT22;8062;53.882;10.642;2023-10-31T04:08:17;11.20;99.90
15926;DHT22;8062;53.882;10.642;2023-10-31T04:09:37;11.10;99.90
15926;DHT22;8062;53.882;10.642;2023-10-31T04:10:56;11.10;99.90
15926;DHT22;8062;53.882;10.642;2023-10-31T04:12:17;11.10;99.90
15926;DHT22;8062;53.882;10.642;2023-10-31T04:13:36;11.20;99.90
15926;DHT22;8062;53.882;10.642;2023-10-31T04:14:56;11.20;99.90
15926;DHT22;8062;53.882;10.642;2023-10-31T04:16:16;11.20;99.90
15926;DHT22;8062;53.882;10.642;2023-10-31T04:17:37;11.20;99.90
15926;DHT22;8062;53.882;10.642;2023-10-31T04:18:56;11.20;99.90
15926;DHT22;8062;53.882;10.642;2023-10-31T04:20:16;11.20;99.90
15926;DHT22;8062;53.882;10.642;2023-10-31T04:21:36;11.20;99.90
15926;DHT22;8062;53.882;10.642;2023-10-31T04:22:56;11.20;99.90
15926;DHT22;8062;53.882;10.642;2023-10-31T04:24:15;11.20;99.90
15926;DHT22;8062;53.882;10.642;2023-10-31T04:25:35;11.30;99.90
15926;DHT22;8062;53.882;10.642;2023-10-31T04:26:54;11.30;99.90
15926;DHT22;8062;53.882;10.642;2023-10-31T04:28:14;11.30;99.90
15926;DHT22;8062;53.882;10.642;2023-10-31T04:29:34;11.30;99.90
15926;DHT22;8062;53.882;10.642;2023-10-31T04:30:53;11.30;99.90
15926;DHT22;8062;53.882;10.642;2023-10-31T04:32:12;11.30;99.90
15926;DHT22;8062;53.882;10.642;2023-10-31T04:33:32;11.30;99.90
15926;DHT22;8062;53.882;10.642;2023-10-31T04:34:52;11.30;99.90
15926;DHT22;8062;53.882;10.642;2023-10-31T04:36:11;11.30;99.90
15926;DHT22;8062;53.882;10.642;2023-10-31T04:37:31;11.30;99.90
15926;DHT22;8062;53.882;10.642;2023-10-31T04:38:50;11.30;99.90
15926;DHT22;8062;53.882;10.642;2023-10-31T04:40:10;11.40;99.90
15926;DHT22;8062;53.882;10.642;2023-10-31T04:41:29;11.40;99.90
15926;DHT22;8062;53.882;10.642;2023-10-31T04:42:49;11.40;99.90
15926;DHT22;8062;53.882;10.642;2023-10-31T04:44:08;11.40;99.90
15926;DHT22;8062;53.882;10.642;2023-10-31T04:45:28;11.40;99.90
15926;DHT22;8062;53.882;10.642;2023-10-31T04:46:47;11.40;99.90
15926;DHT22;8062;53.882;10.642;2023-10-31T04:48:07;11.40;99.90
15926;DHT22;8062;53.882;10.642;2023-10-31T04:49:26;11.40;99.90
15926;DHT22;8062;53.882;10.642;2023-10-31T04:50:46;11.40;99.90
15926;DHT22;8062;53.882;10.642;2023-10-31T04:52:06;11.50;99.90
15926;DHT22;8062;53.882;10.642;2023-10-31T04:53:26;11.50;99.90
15926;DHT22;8062;53.882;10.642;2023-10-31T04:54:45;11.50;99.90
15926;DHT22;8062;53.882;10.642;2023-10-31T04:56:12;11.50;99.90
15926;DHT22;8062;53.882;10.642;2023-10-31T04:57:33;11.50;99.90
15926;DHT22;8062;53.882;10.642;2023-10-31T04:58:52;11.50;99.90
15926;DHT22;8062;53.882;10.642;2023-10-31T05:00:12;11.60;99.90
15926;DHT22;8062;53.882;10.642;2023-10-31T05:01:32;11.60;99.90
15926;DHT22;8062;53.882;10.642;2023-10-31T05:02:51;11.60;99.90
15926;DHT22;8062;53.882;10.642;2023-10-31T05:04:11;11.60;99.90
15926;DHT22;8062;53.882;10.642;2023-10-31T05:05:30;11.60;99.90
15926;DHT22;8062;53.882;10.642;2023-10-31T05:06:50;11.60;99.90
15926;DHT22;8062;53.882;10.642;2023-10-31T05:08:09;11.60;99.90
15926;DHT22;8062;53.882;10.642;2023-10-31T05:09:29;11.60;99.90
15926;DHT22;8062;53.882;10.642;2023-10-31T05:10:48;11.60;99.90
15926;DHT22;8062;53.882;10.642;2023-10-31T05:12:07;11.70;99.90
15926;DHT22;8062;53.882;10.642;2023-10-31T05:13:27;11.60;99.90
15926;DHT22;8062;53.882;10.642;2023-10-31T05:14:46;11.60;99.90
15926;DHT22;8062;53.882;10.642;2023-10-31T05:16:07;11.60;99.90
15926;DHT22;8062;53.882;10.642;2023-10-31T05:17:26;11.60;99.90
15926;DHT22;8062;53.882;10.642;2023-10-31T05:18:46;11.70;99.90
15926;DHT22;8062;53.882;10.642;2023-10-31T05:20:05;11.70;99.90
15926;DHT22;8062;53.882;10.642;2023-10-31T05:21:25;11.70;99.90
15926;DHT22;8062;53.882;10.642;2023-10-31T05:22:45;11.80;99.90
15926;DHT22;8062;53.882;10.642;2023-10-31T05:24:04;11.70;99.90
15926;DHT22;8062;53.882;10.642;2023-10-31T05:25:24;11.80;99.90
15926;DHT22;8062;53.882;10.642;2023-10-31T05:26:43;11.70;99.90
15926;DHT22;8062;53.882;10.642;2023-10-31T05:28:03;11.70;99.90
15926;DHT22;8062;53.882;10.642;2023-10-31T05:29:23;11.70;99.90
15926;DHT22;8062;53.882;10.642;2023-10-31T05:30:43;11.70;99.90
15926;DHT22;8062;53.882;10.642;2023-10-31T05:32:03;11.70;99.90
15926;DHT22;8062;53.882;10.642;2023-10-31T05:33:22;11.70;99.90
15926;DHT22;8062;53.882;10.642;2023-10-31T05:34:42;11.80;99.90
15926;DHT22;8062;53.882;10.642;2023-10-31T05:36:02;11.80;99.90
15926;DHT22;8062;53.882;10.642;2023-10-31T05:37:21;11.80;99.90
15926;DHT22;8062;53.882;10.642;2023-10-31T05:38:41;11.80;99.90
15926;DHT22;8062;53.882;10.642;2023-10-31T05:40:01;11.80;99.90
15926;DHT22;8062;53.882;10.642;2023-10-31T05:41:21;11.80;99.90
15926;DHT22;8062;53.882;10.642;2023-10-31T05:42:40;11.80;99.90
15926;DHT22;8062;53.882;10.642;2023-10-31T05:44:00;11.80;99.90
15926;DHT22;8062;53.882;10.642;2023-10-31T05:45:19;11.80;99.90
15926;DHT22;8062;53.882;10.642;2023-10-31T05:46:39;11.80;99.90
15926;DHT22;8062;53.882;10.642;2023-10-31T05:47:59;11.80;99.90
15926;DHT22;8062;53.882;10.642;2023-10-31T05:49:18;11.80;99.90
15926;DHT22;8062;53.882;10.642;2023-10-31T05:50:38;11.80;99.90
15926;DHT22;8062;53.882;10.642;2023-10-31T05:51:58;11.80;99.90
15926;DHT22;8062;53.882;10.642;2023-10-31T05:53:18;11.80;99.90
15926;DHT22;8062;53.882;10.642;2023-10-31T05:54:37;11.90;99.90
15926;DHT22;8062;53.882;10.642;2023-10-31T05:55:57;11.90;99.90
15926;DHT22;8062;53.882;10.642;2023-10-31T05:57:16;11.90;99.90
15926;DHT22;8062;53.882;10.642;2023-10-31T05:58:40;11.90;99.90
15926;DHT22;8062;53.882;10.642;2023-10-31T06:00:00;11.80;99.90
15926;DHT22;8062;53.882;10.642;2023-10-31T06:01:20;11.80;99.90
15926;DHT22;8062;53.882;10.642;2023-10-31T06:02:39;11.80;99.90
15926;DHT22;8062;53.882;10.642;2023-10-31T06:03:59;11.90;99.90
15926;DHT22;8062;53.882;10.642;2023-10-31T06:05:18;11.90;99.90
15926;DHT22;8062;53.882;10.642;2023-10-31T06:06:38;11.90;99.90
15926;DHT22;8062;53.882;10.642;2023-10-31T06:07:58;11.90;99.90
15926;DHT22;8062;53.882;10.642;2023-10-31T06:09:18;11.90;99.90
15926;DHT22;8062;53.882;10.642;2023-10-31T06:10:37;11.90;99.90
15926;DHT22;8062;53.882;10.642;2023-10-31T06:11:57;11.90;99.90
15926;DHT22;8062;53.882;10.642;2023-10-31T06:13:17;11.90;99.90
15926;DHT22;8062;53.882;10.642;2023-10-31T06:14:37;12.00;99.90
15926;DHT22;8062;53.882;10.642;2023-10-31T06:15:57;12.00;99.90
15926;DHT22;8062;53.882;10.642;2023-10-31T06:17:19;12.00;99.90
15926;DHT22;8062;53.882;10.642;2023-10-31T06:18:39;12.00;99.90
15926;DHT22;8062;53.882;10.642;2023-10-31T06:19:59;12.00;99.90
15926;DHT22;8062;53.882;10.642;2023-10-31T06:21:18;12.00;99.90
15926;DHT22;8062;53.882;10.642;2023-10-31T06:22:38;12.00;99.90
15926;DHT22;8062;53.882;10.642;2023-10-31T06:23:57;12.00;99.90
15926;DHT22;8062;53.882;10.642;2023-10-31T06:25:17;12.00;99.90
15926;DHT22;8062;53.882;10.642;2023-10-31T06:26:36;12.00;99.90
15926;DHT22;8062;53.882;10.642;2023-10-31T06:27:55;12.00;99.90
15926;DHT22;8062;53.882;10.642;2023-10-31T06:29:15;12.00;99.90
15926;DHT22;8062;53.882;10.642;2023-10-31T06:30:35;12.00;99.90
15926;DHT22;8062;53.882;10.642;2023-10-31T06:31:54;12.00;99.90
15926;DHT22;8062;53.882;10.642;2023-10-31T06:33:14;12.00;99.90
15926;DHT22;8062;53.882;10.642;2023-10-31T06:34:33;12.10;99.90
15926;DHT22;8062;53.882;10.642;2023-10-31T06:35:53;12.00;99.90
15926;DHT22;8062;53.882;10.642;2023-10-31T06:37:13;12.00;99.90
15926;DHT22;8062;53.882;10.642;2023-10-31T06:38:32;12.10;99.90
15926;DHT22;8062;53.882;10.642;2023-10-31T06:39:51;12.10;99.90
15926;DHT22;8062;53.882;10.642;2023-10-31T06:41:11;12.10;99.90
15926;DHT22;8062;53.882;10.642;2023-10-31T06:42:31;12.10;99.90
15926;DHT22;8062;53.882;10.642;2023-10-31T06:43:50;12.10;99.90
15926;DHT22;8062;53.882;10.642;2023-10-31T06:45:10;12.10;99.90
15926;DHT22;8062;53.882;10.642;2023-10-31T06:46:29;12.10;99.90
15926;DHT22;8062;53.882;10.642;2023-10-31T06:47:48;12.10;99.90
15926;DHT22;8062;53.882;10.642;2023-10-31T06:49:08;12.10;99.90
15926;DHT22;8062;53.882;10.642;2023-10-31T06:50:27;12.10;99.90
15926;DHT22;8062;53.882;10.642;2023-10-31T06:51:47;12.20;99.90
15926;DHT22;8062;53.882;10.642;2023-10-31T06:53:06;12.10;99.90
15926;DHT22;8062;53.882;10.642;2023-10-31T06:54:26;12.20;99.90
15926;DHT22;8062;53.882;10.642;2023-10-31T06:55:45;12.20;99.90
15926;DHT22;8062;53.882;10.642;2023-10-31T06:57:05;12.20;99.90
15926;DHT22;8062;53.882;10.642;2023-10-31T06:58:24;12.20;99.90
15926;DHT22;8062;53.882;10.642;2023-10-31T06:59:43;12.20;99.90
15926;DHT22;8062;53.882;10.642;2023-10-31T07:01:03;12.20;99.90
15926;DHT22;8062;53.882;10.642;2023-10-31T07:02:23;12.20;99.90
15926;DHT22;8062;53.882;10.642;2023-10-31T07:03:43;12.20;99.90
15926;DHT22;8062;53.882;10.642;2023-10-31T07:05:02;12.20;99.90
15926;DHT22;8062;53.882;10.642;2023-10-31T07:06:22;12.20;99.90
15926;DHT22;8062;53.882;10.642;2023-10-31T07:07:42;12.30;99.90
15926;DHT22;8062;53.882;10.642;2023-10-31T07:09:01;12.30;99.90
15926;DHT22;8062;53.882;10.642;2023-10-31T07:10:24;12.30;99.90
15926;DHT22;8062;53.882;10.642;2023-10-31T07:11:44;12.30;99.90
15926;DHT22;8062;53.882;10.642;2023-10-31T07:13:03;12.30;99.90
15926;DHT22;8062;53.882;10.642;2023-10-31T07:14:23;12.30;99.90
15926;DHT22;8062;53.882;10.642;2023-10-31T07:15:42;12.30;99.90
15926;DHT22;8062;53.882;10.642;2023-10-31T07:17:02;12.30;99.90
15926;DHT22;8062;53.882;10.642;2023-10-31T07:18:21;12.30;99.90
15926;DHT22;8062;53.882;10.642;2023-10-31T07:19:41;12.30;99.90
15926;DHT22;8062;53.882;10.642;2023-10-31T07:21:00;12.30;99.90
15926;DHT22;8062;53.882;10.642;2023-10-31T07:22:20;12.30;99.90
15926;DHT22;8062;53.882;10.642;2023-10-31T07:23:41;12.30;99.90
15926;DHT22;8062;53.882;10.642;2023-10-31T07:25:00;12.30;99.90
15926;DHT22;8062;53.882;10.642;2023-10-31T07:26:22;12.30;99.90
15926;DHT22;8062;53.882;10.642;2023-10-31T07:27:42;12.30;99.90
15926;DHT22;8062;53.882;10.642;2023-10-31T07:29:01;12.30;99.90
15926;DHT22;8062;53.882;10.642;2023-10-31T07:30:21;12.40;99.90
15926;DHT22;8062;53.882;10.642;2023-10-31T07:31:40;12.40;99.90
15926;DHT22;8062;53.882;10.642;2023-10-31T07:33:00;12.40;99.90
15926;DHT22;8062;53.882;10.642;2023-10-31T07:34:19;12.40;99.90
15926;DHT22;8062;53.882;10.642;2023-10-31T07:35:39;12.40;99.90
15926;DHT22;8062;53.882;10.642;2023-10-31T07:36:58;12.40;99.90
15926;DHT22;8062;53.882;10.642;2023-10-31T07:38:18;12.40;99.90
15926;DHT22;8062;53.882;10.642;2023-10-31T07:39:37;12.40;99.90
15926;DHT22;8062;53.882;10.642;2023-10-31T07:40:57;12.40;99.90
15926;DHT22;8062;53.882;10.642;2023-10-31T07:42:16;12.40;99.90
15926;DHT22;8062;53.882;10.642;2023-10-31T07:43:36;12.40;99.90
15926;DHT22;8062;53.882;10.642;2023-10-31T07:44:55;12.40;99.90
15926;DHT22;8062;53.882;10.642;2023-10-31T07:46:15;12.50;99.90
15926;DHT22;8062;53.882;10.642;2023-10-31T07:47:35;12.50;99.90
15926;DHT22;8062;53.882;10.642;2023-10-31T07:48:54;12.50;99.90
15926;DHT22;8062;53.882;10.642;2023-10-31T07:50:14;12.50;99.90
15926;DHT22;8062;53.882;10.642;2023-10-31T07:51:33;12.50;99.90
15926;DHT22;8062;53.882;10.642;2023-10-31T07:52:53;12.50;99.90
15926;DHT22;8062;53.882;10.642;2023-10-31T07:54:13;12.50;99.90
15926;DHT22;8062;53.882;10.642;2023-10-31T07:55:33;12.50;99.90
15926;DHT22;8062;53.882;10.642;2023-10-31T07:56:52;12.50;99.90
15926;DHT22;8062;53.882;10.642;2023-10-31T07:58:12;12.50;99.90
15926;DHT22;8062;53.882;10.642;2023-10-31T07:59:35;12.50;99.90
15926;DHT22;8062;53.882;10.642;2023-10-31T08:00:55;12.60;99.90
15926;DHT22;8062;53.882;10.642;2023-10-31T08:02:15;12.60;99.90
15926;DHT22;8062;53.882;10.642;2023-10-31T08:03:36;12.60;99.90
15926;DHT22;8062;53.882;10.642;2023-10-31T08:04:55;12.60;99.90
15926;DHT22;8062;53.882;10.642;2023-10-31T08:06:14;12.70;99.90
15926;DHT22;8062;53.882;10.642;2023-10-31T08:07:34;12.70;99.90
15926;DHT22;8062;53.882;10.642;2023-10-31T08:08:54;12.70;99.90
15926;DHT22;8062;53.882;10.642;2023-10-31T08:10:14;12.70;99.90
15926;DHT22;8062;53.882;10.642;2023-10-31T08:11:34;12.80;99.90
15926;DHT22;8062;53.882;10.642;2023-10-31T08:12:54;12.80;99.90
15926;DHT22;8062;53.882;10.642;2023-10-31T08:14:14;12.70;99.90
15926;DHT22;8062;53.882;10.642;2023-10-31T08:15:34;12.70;99.90
15926;DHT22;8062;53.882;10.642;2023-10-31T08:16:54;12.70;99.90
15926;DHT22;8062;53.882;10.642;2023-10-31T08:18:13;12.70;99.90
15926;DHT22;8062;53.882;10.642;2023-10-31T08:19:33;12.70;99.90
15926;DHT22;8062;53.882;10.642;2023-10-31T08:20:52;12.70;99.90
15926;DHT22;8062;53.882;10.642;2023-10-31T08:22:12;12.70;99.90
15926;DHT22;8062;53.882;10.642;2023-10-31T08:23:31;12.70;99.90